Time,TemperatureF,DewpointF,PressureIn,WindDirection,WindDirectionDegrees,WindSpeedMPH,WindSpeedGustMPH,Humidity,HourlyPrecipIn,Conditions,Clouds,dailyrainin,SoftwareType,DateUTC
2013-11-27 12:04:00,50.9,28.1,29.47,WSW,248,2.5,2.5,41,0.00,,---,0.00,VWS V14.01,2013-11-27 11:04:00,
2013-11-27 12:05:00,51.1,28.2,29.47,West,270,2.9,2.9,41,0.00,,---,0.00,VWS V14.01,2013-11-27 11:05:00,
2013-11-27 12:07:00,50.9,28.6,29.47,West,270,1.6,2.9,42,0.00,,---,0.00,VWS V14.01,2013-11-27 11:07:00,
2013-11-27 12:12:00,50.5,28.3,29.47,West,270,3.8,3.8,42,0.00,,---,0.00,VWS V14.01,2013-11-27 11:12:00,
2013-11-27 12:18:00,50.2,28.0,29.47,North,0,2.7,2.7,42,0.00,,---,0.00,VWS V14.01,2013-11-27 11:18:00,
2013-11-27 12:23:00,50.0,27.8,29.47,WSW,248,2.5,2.5,42,0.00,,---,0.00,VWS V14.01,2013-11-27 11:23:00,
2013-11-27 12:28:00,50.0,27.8,29.47,West,270,2.0,2.0,42,0.00,,---,0.00,VWS V14.01,2013-11-27 11:28:00,
2013-11-27 12:33:00,49.8,27.7,29.47,West,270,1.3,1.3,42,0.00,,---,0.00,VWS V14.01,2013-11-27 11:33:00,
2013-11-27 12:38:00,49.3,27.2,29.47,NE,45,1.6,2.5,42,0.00,,---,0.00,VWS V14.01,2013-11-27 11:38:00,
2013-11-27 12:43:00,49.3,27.8,29.47,WSW,248,3.4,3.4,43,0.00,,---,0.00,VWS V14.01,2013-11-27 11:43:00,
2013-11-27 12:48:00,48.9,26.9,29.47,North,0,2.5,4.9,42,0.00,,---,0.00,VWS V14.01,2013-11-27 11:48:00,
2013-11-27 12:54:00,48.7,26.7,29.47,SW,225,3.6,6.3,42,0.00,,---,0.00,VWS V14.01,2013-11-27 11:54:00,
2013-11-27 12:59:00,48.7,27.3,29.47,WSW,248,2.7,2.7,43,0.00,,---,0.00,VWS V14.01,2013-11-27 11:59:00,
2013-11-27 13:04:00,48.6,27.1,29.47,West,270,3.8,3.8,43,0.00,,---,0.00,VWS V14.01,2013-11-27 12:04:00,
2013-11-27 13:09:00,48.4,26.9,29.47,NNW,338,1.6,3.8,43,0.00,,---,0.00,VWS V14.01,2013-11-27 12:09:00,
2013-11-27 13:14:00,48.4,26.9,29.47,SSW,202,2.7,2.7,43,0.00,,---,0.00,VWS V14.01,2013-11-27 12:14:00,
2013-11-27 13:19:00,48.4,26.9,29.47,SSE,158,4.9,4.9,43,0.00,,---,0.00,VWS V14.01,2013-11-27 12:19:00,
2013-11-27 13:24:00,48.7,27.3,29.47,South,180,5.4,5.4,43,0.00,,---,0.00,VWS V14.01,2013-11-27 12:24:00,
2013-11-27 13:29:00,48.9,27.4,29.47,West,270,2.0,2.5,43,0.00,,---,0.00,VWS V14.01,2013-11-27 12:29:00,
2013-11-27 13:34:00,48.9,27.4,29.47,SSE,158,3.6,3.6,43,0.00,,---,0.00,VWS V14.01,2013-11-27 12:34:00,
2013-11-27 13:39:00,48.6,27.1,29.47,WSW,248,4.3,4.3,43,0.00,,---,0.00,VWS V14.01,2013-11-27 12:39:00,
2013-11-27 13:45:00,48.4,26.9,29.47,West,270,3.4,6.3,43,0.00,,---,0.00,VWS V14.01,2013-11-27 12:45:00,
2013-11-27 13:50:00,47.8,26.4,29.47,SSW,202,4.0,4.0,43,0.00,,---,0.00,VWS V14.01,2013-11-27 12:50:00,
2013-11-27 13:55:00,47.8,26.4,29.47,SW,225,3.4,3.6,43,0.00,,---,0.00,VWS V14.01,2013-11-27 12:55:00,
2013-11-27 14:00:00,47.8,26.4,29.47,SSE,158,4.0,4.0,43,0.00,,---,0.00,VWS V14.01,2013-11-27 13:00:00,
2013-11-27 14:05:00,47.7,26.3,29.47,West,270,3.8,3.8,43,0.00,,---,0.00,VWS V14.01,2013-11-27 13:05:00,
2013-11-27 14:10:00,47.5,26.1,29.47,West,270,2.7,3.4,43,0.00,,---,0.00,VWS V14.01,2013-11-27 13:10:00,
2013-11-27 14:15:00,47.3,26.5,29.47,SW,225,3.1,3.1,44,0.00,,---,0.00,VWS V14.01,2013-11-27 13:15:00,
2013-11-27 14:20:00,47.1,26.3,29.47,WNW,292,2.5,2.5,44,0.00,,---,0.00,VWS V14.01,2013-11-27 13:20:00,
2013-11-27 14:25:00,46.9,26.2,29.47,West,270,2.9,4.3,44,0.00,,---,0.00,VWS V14.01,2013-11-27 13:25:00,
2013-11-27 14:30:00,46.9,26.2,29.47,West,270,2.9,4.0,44,0.00,,---,0.00,VWS V14.01,2013-11-27 13:30:00,
2013-11-27 14:35:00,46.8,26.6,29.47,West,270,2.0,3.4,45,0.00,,---,0.00,VWS V14.01,2013-11-27 13:35:00,
2013-11-27 14:40:00,46.8,26.6,29.47,WSW,248,2.9,2.9,45,0.00,,---,0.00,VWS V14.01,2013-11-27 13:40:00,
2013-11-27 14:46:00,46.6,26.4,29.50,NW,315,4.7,4.7,45,0.00,,---,0.00,VWS V14.01,2013-11-27 13:46:00,
2013-11-27 14:51:00,46.6,26.9,29.50,WNW,292,4.3,5.4,46,0.00,,---,0.00,VWS V14.01,2013-11-27 13:51:00,
2013-11-27 14:56:00,46.6,26.9,29.50,NNW,338,2.7,2.7,46,0.00,,---,0.00,VWS V14.01,2013-11-27 13:56:00,
2013-11-27 15:01:00,46.4,26.8,29.50,SW,225,2.9,3.1,46,0.00,,---,0.00,VWS V14.01,2013-11-27 14:01:00,
2013-11-27 15:06:00,46.6,27.5,29.50,WSW,248,3.1,3.1,47,0.00,,---,0.00,VWS V14.01,2013-11-27 14:06:00,
2013-11-27 15:11:00,46.4,27.3,29.50,South,180,3.8,3.8,47,0.00,,---,0.00,VWS V14.01,2013-11-27 14:11:00,
2013-11-27 15:16:00,46.4,27.3,29.50,SSW,202,2.0,2.5,47,0.00,,---,0.00,VWS V14.01,2013-11-27 14:16:00,
2013-11-27 15:21:00,46.4,27.3,29.50,West,270,2.0,3.1,47,0.00,,---,0.00,VWS V14.01,2013-11-27 14:21:00,
2013-11-27 15:26:00,46.4,27.3,29.50,West,270,2.7,2.7,47,0.00,,---,0.00,VWS V14.01,2013-11-27 14:26:00,
2013-11-27 15:31:00,46.2,27.6,29.50,SE,135,4.3,4.3,48,0.00,,---,0.00,VWS V14.01,2013-11-27 14:31:00,
2013-11-27 15:36:00,46.0,27.5,29.50,WNW,292,6.5,6.5,48,0.00,,---,0.00,VWS V14.01,2013-11-27 14:36:00,
2013-11-27 16:53:00,44.8,26.8,29.50,SW,225,2.7,6.5,49,0.00,,---,0.00,VWS V14.01,2013-11-27 15:53:00,
2013-11-27 16:58:00,44.8,26.8,29.50,NW,315,4.0,4.0,49,0.00,,---,0.00,VWS V14.01,2013-11-27 15:58:00,
2013-11-27 17:03:00,44.8,26.8,29.50,West,270,3.6,3.8,49,0.00,,---,0.00,VWS V14.01,2013-11-27 16:03:00,
2013-11-27 17:08:00,45.0,26.5,29.50,WSW,248,2.7,3.4,48,0.00,,---,0.00,VWS V14.01,2013-11-27 16:08:00,
2013-11-27 17:13:00,45.0,26.5,29.50,NW,315,3.6,3.6,48,0.00,,---,0.00,VWS V14.01,2013-11-27 16:13:00,
2013-11-27 17:18:00,45.0,26.5,29.50,West,270,3.4,4.7,48,0.00,,---,0.00,VWS V14.01,2013-11-27 16:18:00,
2013-11-27 17:23:00,45.0,26.5,29.53,West,270,3.1,3.1,48,0.00,,---,0.00,VWS V14.01,2013-11-27 16:23:00,
2013-11-27 17:28:00,44.8,26.3,29.53,SSE,158,3.4,3.4,48,0.00,,---,0.00,VWS V14.01,2013-11-27 16:28:00,
2013-11-27 17:33:00,44.8,26.3,29.53,East,90,2.9,2.9,48,0.00,,---,0.00,VWS V14.01,2013-11-27 16:33:00,
2013-11-27 17:38:00,44.6,26.1,29.53,West,270,2.9,2.9,48,0.00,,---,0.00,VWS V14.01,2013-11-27 16:38:00,
2013-11-27 17:43:00,44.6,26.1,29.53,East,90,3.6,3.6,48,0.00,,---,0.00,VWS V14.01,2013-11-27 16:43:00,
2013-11-27 17:49:00,44.6,26.1,29.53,WSW,248,4.3,4.3,48,0.00,,---,0.00,VWS V14.01,2013-11-27 16:49:00,
2013-11-27 17:54:00,44.6,26.1,29.53,WNW,292,2.2,2.7,48,0.00,,---,0.00,VWS V14.01,2013-11-27 16:54:00,
2013-11-27 17:59:00,44.6,26.1,29.53,SW,225,2.0,2.0,48,0.00,,---,0.00,VWS V14.01,2013-11-27 16:59:00,
2013-11-27 18:04:00,44.6,26.1,29.53,NW,315,2.0,2.0,48,0.00,,---,0.00,VWS V14.01,2013-11-27 17:04:00,
2013-11-27 18:09:00,44.8,26.3,29.56,WNW,292,3.6,3.6,48,0.00,,---,0.00,VWS V14.01,2013-11-27 17:09:00,
2013-11-27 18:14:00,44.6,26.1,29.56,WSW,248,0.0,0.0,48,0.00,,---,0.00,VWS V14.01,2013-11-27 17:14:00,
2013-11-27 18:19:00,44.6,26.1,29.56,West,270,1.3,1.3,48,0.00,,---,0.00,VWS V14.01,2013-11-27 17:19:00,
2013-11-27 18:24:00,44.4,26.5,29.56,West,270,0.0,0.0,49,0.00,,---,0.00,VWS V14.01,2013-11-27 17:24:00,
2013-11-27 18:29:00,44.2,26.3,29.56,West,270,1.6,1.6,49,0.00,,---,0.00,VWS V14.01,2013-11-27 17:29:00,
2013-11-27 18:34:00,44.2,26.3,29.56,North,0,2.0,2.0,49,0.00,,---,0.00,VWS V14.01,2013-11-27 17:34:00,
2013-11-27 18:39:00,44.4,26.5,29.56,NW,315,2.2,2.2,49,0.00,,---,0.00,VWS V14.01,2013-11-27 17:39:00,
2013-11-27 18:44:00,44.6,26.6,29.56,West,270,2.0,2.0,49,0.00,,---,0.00,VWS V14.01,2013-11-27 17:44:00,
2013-11-27 18:49:00,44.6,26.6,29.56,NW,315,0.0,1.3,49,0.00,,---,0.00,VWS V14.01,2013-11-27 17:49:00,
2013-11-27 18:55:00,44.6,26.6,29.56,West,270,1.1,2.2,49,0.00,,---,0.00,VWS V14.01,2013-11-27 17:55:00,
2013-11-27 19:00:00,44.6,27.1,29.56,WSW,248,0.0,0.0,50,0.00,,---,0.00,VWS V14.01,2013-11-27 18:00:00,
2013-11-27 19:05:00,44.8,27.3,29.56,West,270,0.0,1.3,50,0.00,,---,0.00,VWS V14.01,2013-11-27 18:05:00,
2013-11-27 19:10:00,44.8,27.3,29.56,West,270,2.0,2.0,50,0.00,,---,0.00,VWS V14.01,2013-11-27 18:10:00,
2013-11-27 19:15:00,44.8,26.8,29.56,West,270,2.0,2.0,49,0.00,,---,0.00,VWS V14.01,2013-11-27 18:15:00,
2013-11-27 19:20:00,44.8,26.8,29.56,SW,225,2.2,3.8,49,0.00,,---,0.00,VWS V14.01,2013-11-27 18:20:00,
2013-11-27 19:25:00,44.6,27.1,29.56,West,270,1.3,2.0,50,0.00,,---,0.00,VWS V14.01,2013-11-27 18:25:00,
2013-11-27 19:30:00,44.6,27.1,29.56,SW,225,1.6,1.6,50,0.00,,---,0.00,VWS V14.01,2013-11-27 18:30:00,
2013-11-27 19:35:00,44.6,27.1,29.56,West,270,2.7,2.7,50,0.00,,---,0.00,VWS V14.01,2013-11-27 18:35:00,
2013-11-27 19:40:00,44.6,27.1,29.56,East,90,0.0,0.0,50,0.00,,---,0.00,VWS V14.01,2013-11-27 18:40:00,
2013-11-27 19:45:00,44.6,27.1,29.56,WNW,292,0.0,0.0,50,0.00,,---,0.00,VWS V14.01,2013-11-27 18:45:00,
2013-11-27 19:51:00,44.8,27.3,29.56,West,270,2.5,3.1,50,0.00,,---,0.00,VWS V14.01,2013-11-27 18:51:00,
2013-11-27 19:56:00,44.6,27.1,29.59,West,270,2.5,2.5,50,0.00,,---,0.00,VWS V14.01,2013-11-27 18:56:00,
2013-11-27 19:58:00,44.8,27.3,29.59,SW,225,2.2,2.5,50,0.00,,---,0.00,VWS V14.01,2013-11-27 18:58:00,
2013-11-27 20:03:00,44.8,27.3,29.59,SSE,158,0.9,2.0,50,0.00,,---,0.00,VWS V14.01,2013-11-27 19:03:00,
2013-11-27 20:08:00,44.8,27.3,29.59,SE,135,2.9,2.9,50,0.00,,---,0.00,VWS V14.01,2013-11-27 19:08:00,
2013-11-27 20:13:00,44.8,27.3,29.59,West,270,2.5,2.5,50,0.00,,---,0.00,VWS V14.01,2013-11-27 19:13:00,